createdAt,value
2019-02-20T00:02:11.729Z,98850.12
2019-02-20T00:05:16.235Z,98841.90
2019-02-20T00:08:20.941Z,98844.13
2019-02-20T00:11:25.752Z,98852.03
2019-02-20T00:14:30.698Z,98852.36
2019-02-20T00:17:35.418Z,98854.55
2019-02-20T00:20:39.859Z,98851.08
2019-02-20T00:23:44.606Z,98853.08
2019-02-20T00:26:49.304Z,98850.15
2019-02-20T00:29:53.746Z,98858.73
2019-02-20T00:32:58.460Z,98858.98
2019-02-20T00:36:02.898Z,98853.66
2019-02-20T00:39:09.355Z,98862.84
2019-02-20T00:42:14.089Z,98863.66
2019-02-20T00:45:23.114Z,98856.27
2019-02-20T00:48:29.198Z,98858.09
2019-02-20T00:51:35.285Z,98863.00
2019-02-20T00:54:39.977Z,98875.66
2019-02-20T00:57:44.410Z,98877.30
2019-02-20T01:00:48.829Z,98881.05
2019-02-20T01:03:53.267Z,98882.59
2019-02-20T01:06:57.700Z,98886.55
2019-02-20T01:10:02.137Z,98883.49
2019-02-20T01:13:06.816Z,98880.35
2019-02-20T01:16:11.546Z,98878.72
2019-02-20T01:19:15.995Z,98883.90
2019-02-20T01:22:20.433Z,98882.38
2019-02-20T01:25:24.872Z,98880.77
2019-02-20T01:28:29.653Z,98880.86
2019-02-20T01:31:34.380Z,98877.39
2019-02-20T01:34:39.111Z,98880.74
2019-02-20T01:37:43.549Z,98884.40
2019-02-20T01:40:47.985Z,98887.42
2019-02-20T01:43:52.702Z,98882.25
2019-02-20T01:46:57.134Z,98878.83
2019-02-20T01:50:01.569Z,98870.64
2019-02-20T01:53:10.230Z,98867.31
2019-02-20T01:56:12.181Z,98867.83
2019-02-20T01:59:16.620Z,98861.91
2019-02-20T02:02:21.385Z,98868.13
2019-02-20T02:05:25.823Z,98868.52
2019-02-20T02:08:30.537Z,98865.84
2019-02-20T02:11:34.974Z,98870.20
2019-02-20T02:14:39.692Z,98869.99
2019-02-20T02:17:44.129Z,98865.66
2019-02-20T02:20:48.564Z,98871.25
2019-02-20T02:23:53.272Z,98868.79
2019-02-20T02:26:57.714Z,98875.98
2019-02-20T02:30:02.161Z,98876.39
2019-02-20T02:33:06.587Z,98878.39
2019-02-20T02:36:11.371Z,98876.66
2019-02-20T02:39:15.803Z,98873.05
2019-02-20T02:42:20.528Z,98873.63
2019-02-20T02:45:25.272Z,98869.27
2019-02-20T02:48:29.698Z,98867.94
2019-02-20T02:51:34.143Z,98854.81
2019-02-20T02:54:38.578Z,98853.46
2019-02-20T02:57:43.011Z,98851.84
2019-02-20T03:00:47.453Z,98858.57
2019-02-20T03:03:52.209Z,98847.91
2019-02-20T03:06:56.648Z,98857.98
2019-02-20T03:10:01.089Z,98856.43
2019-02-20T03:13:05.792Z,98856.13
2019-02-20T03:16:10.620Z,98852.98
2019-02-20T03:19:15.047Z,98857.08
2019-02-20T03:22:19.489Z,98857.69
2019-02-20T03:25:24.203Z,98856.48
2019-02-20T03:28:28.640Z,98858.52
2019-02-20T03:31:33.358Z,98851.99
2019-02-20T03:34:38.025Z,98843.66
2019-02-20T03:37:42.464Z,98845.30
2019-02-20T03:40:46.965Z,98851.29
2019-02-20T03:43:51.398Z,98847.09
2019-02-20T03:46:55.853Z,98855.43
2019-02-20T03:50:00.609Z,98855.52
2019-02-20T03:53:05.342Z,98853.58
2019-02-20T03:56:09.861Z,98857.25
2019-02-20T03:59:14.288Z,98858.95
2019-02-20T04:02:19.020Z,98856.48
2019-02-20T04:05:23.764Z,98855.19
2019-02-20T04:08:28.195Z,98857.92
2019-02-20T04:11:32.649Z,98869.93
2019-02-20T04:14:38.148Z,98865.52
2019-02-20T04:17:42.590Z,98868.36
2019-02-20T04:20:47.036Z,98872.33
2019-02-20T04:24:01.569Z,98875.25
2019-02-20T04:26:57.894Z,98872.41
2019-02-20T04:30:02.620Z,98871.28
2019-02-20T04:33:07.064Z,98873.22
2019-02-20T04:36:11.877Z,98870.64
2019-02-20T04:39:16.608Z,98869.84
2019-02-20T04:42:21.343Z,98878.88
2019-02-20T04:45:26.074Z,98872.59
2019-02-20T04:48:30.808Z,98879.81
2019-02-20T04:51:35.315Z,98873.94
2019-02-20T04:54:39.979Z,98881.17
2019-02-20T04:57:44.694Z,98876.58
2019-02-20T05:00:49.130Z,98873.73
2019-02-20T05:03:53.953Z,98872.59
2019-02-20T05:06:58.386Z,98875.47
2019-02-20T05:10:02.816Z,98876.36
2019-02-20T05:13:08.132Z,98875.47
2019-02-20T05:16:12.557Z,98873.72
2019-02-20T05:19:17.599Z,98869.33
2019-02-20T05:22:22.335Z,98870.33
2019-02-20T05:25:27.067Z,98873.73
2019-02-20T05:28:31.893Z,98871.77
2019-02-20T05:31:36.325Z,98877.06
2019-02-20T05:34:40.762Z,98873.51
2019-02-20T05:37:45.201Z,98883.91
2019-02-20T05:40:49.637Z,98884.00
2019-02-20T05:43:54.077Z,98888.89
2019-02-20T05:46:59.048Z,98883.39
2019-02-20T05:50:03.656Z,98882.06
2019-02-20T05:53:08.094Z,98881.14
2019-02-20T05:56:12.829Z,98877.73
2019-02-20T05:59:17.561Z,98877.95
2019-02-20T06:02:22.006Z,98886.61
2019-02-20T06:05:26.732Z,98886.80
2019-02-20T06:08:31.564Z,98887.02
2019-02-20T06:11:36.001Z,98894.13
2019-02-20T06:14:40.434Z,98892.48
2019-02-20T06:17:45.229Z,98896.17
2019-02-20T06:20:49.657Z,98906.52
2019-02-20T06:23:54.096Z,98910.74
2019-02-20T06:26:58.834Z,98911.67
2019-02-20T06:30:04.197Z,98923.00
2019-02-20T06:33:08.626Z,98920.41
2019-02-20T06:36:13.302Z,98928.28
2019-02-20T06:39:17.745Z,98934.48
2019-02-20T06:42:22.182Z,98935.01
2019-02-20T06:45:26.629Z,98939.48
2019-02-20T06:48:31.066Z,98941.60
2019-02-20T06:51:35.837Z,98939.70
2019-02-20T06:54:40.574Z,98944.29
2019-02-20T06:57:45.289Z,98944.45
2019-02-20T07:00:49.728Z,98947.75
2019-02-20T07:03:54.169Z,98950.30
2019-02-20T07:07:15.425Z,98957.78
2019-02-20T07:10:51.831Z,98961.23
2019-02-20T07:14:25.787Z,98964.48
2019-02-20T07:17:47.067Z,98964.98
2019-02-20T07:21:08.387Z,98966.20
2019-02-20T07:24:26.445Z,98973.72
2019-02-20T07:27:49.188Z,98973.93
2019-02-20T07:30:53.768Z,98970.13
2019-02-20T07:33:58.206Z,98971.62
2019-02-20T07:37:02.644Z,98967.02
2019-02-20T07:40:09.025Z,98982.28
2019-02-20T07:43:13.470Z,98975.64
2019-02-20T07:46:17.990Z,98968.87
2019-02-20T07:49:22.817Z,98974.42
2019-02-20T07:52:27.245Z,98969.20
2019-02-20T07:55:31.692Z,98985.39
2019-02-20T07:58:36.134Z,98984.57
2019-02-20T08:01:40.574Z,98974.45
2019-02-20T08:04:45.012Z,98976.86
2019-02-20T08:07:49.457Z,98979.52
2019-02-20T08:10:53.946Z,98981.27
2019-02-20T08:13:58.385Z,98985.16
2019-02-20T08:17:03.138Z,98987.66
2019-02-20T08:20:10.191Z,98992.34
2019-02-20T08:23:14.951Z,98993.11
2019-02-20T08:26:19.390Z,98992.75
2019-02-20T08:29:23.826Z,98993.85
2019-02-20T08:32:28.273Z,98987.28
2019-02-20T08:35:32.718Z,98983.10
2019-02-20T08:38:37.496Z,98985.87
2019-02-20T08:41:42.237Z,98977.38
2019-02-20T08:44:46.941Z,98976.55
2019-02-20T08:47:51.378Z,98987.05
2019-02-20T08:50:56.095Z,98980.39
2019-02-20T08:54:00.537Z,98984.74
2019-02-20T08:57:05.255Z,98983.49
2019-02-20T09:00:14.826Z,98983.72
2019-02-20T09:03:19.266Z,98987.78
2019-02-20T09:06:24.065Z,98981.23
2019-02-20T09:09:28.786Z,98980.43
2019-02-20T09:12:33.238Z,98971.70
2019-02-20T09:15:37.677Z,98981.04
2019-02-20T09:18:42.466Z,98978.75
2019-02-20T09:21:46.908Z,98987.19
2019-02-20T09:24:51.408Z,98989.09
2019-02-20T09:27:55.867Z,98989.83
2019-02-20T09:31:00.305Z,98986.69
2019-02-20T09:34:04.735Z,98990.98
2019-02-20T09:37:09.522Z,98991.80
2019-02-20T09:40:18.962Z,98994.15
2019-02-20T09:43:23.888Z,98993.28
2019-02-20T09:46:28.338Z,98994.80
2019-02-20T09:49:32.771Z,98998.11
2019-02-20T09:52:37.216Z,98999.27
2019-02-20T09:55:50.895Z,98988.03
2019-02-20T09:58:47.829Z,98993.36
2019-02-20T10:01:52.284Z,98992.00
2019-02-20T10:04:56.735Z,98992.77
2019-02-20T10:08:01.539Z,98990.28
2019-02-20T10:11:05.988Z,98993.39
2019-02-20T10:14:10.443Z,98988.93
2019-02-20T10:17:14.897Z,98993.23
2019-02-20T10:20:19.330Z,98993.77
2019-02-20T10:23:23.785Z,98995.50
2019-02-20T10:26:28.229Z,99004.55
2019-02-20T10:29:32.677Z,99000.73
2019-02-20T10:32:37.127Z,99002.63
2019-02-20T10:35:41.568Z,99004.11
2019-02-20T10:38:46.279Z,98999.53
2019-02-20T10:41:50.713Z,99004.62
2019-02-20T10:44:55.432Z,99002.10
2019-02-20T10:47:59.890Z,99005.59
2019-02-20T10:51:04.587Z,99012.62
2019-02-20T10:54:09.330Z,99012.24
2019-02-20T10:57:13.778Z,99015.08
2019-02-20T11:00:24.290Z,99012.18
2019-02-20T11:03:29.345Z,99007.72
2019-02-20T11:06:34.111Z,99007.52
2019-02-20T11:09:38.815Z,99011.58
2019-02-20T11:12:43.545Z,99003.48
2019-02-20T11:15:48.271Z,99009.63
2019-02-20T11:18:53.000Z,99016.45
2019-02-20T11:21:57.745Z,99010.02
2019-02-20T11:25:02.470Z,99017.07
2019-02-20T11:28:07.193Z,99015.19
2019-02-20T11:31:11.634Z,99015.71
2019-02-20T11:34:16.126Z,99015.73
2019-02-20T11:37:20.795Z,99022.99
2019-02-20T11:40:25.289Z,99020.55
2019-02-20T11:43:29.737Z,99030.20
2019-02-20T11:46:34.448Z,99018.88
2019-02-20T11:49:38.891Z,99014.13
2019-02-20T11:52:44.218Z,99011.93
2019-02-20T11:55:48.712Z,99008.84
2019-02-20T11:58:53.476Z,99010.08
2019-02-20T12:01:58.206Z,99006.99
2019-02-20T12:05:02.650Z,99008.08
2019-02-20T12:08:07.403Z,99002.08
2019-02-20T12:11:11.854Z,99012.89
2019-02-20T12:14:16.295Z,99005.27
2019-02-20T12:17:21.363Z,99010.58
2019-02-20T12:20:25.868Z,99014.03
2019-02-20T12:23:36.526Z,99015.07
2019-02-20T12:26:36.471Z,99007.30
2019-02-20T12:29:40.916Z,99009.75
2019-02-20T12:32:45.356Z,99003.91
2019-02-20T12:35:49.801Z,98999.31
2019-02-20T12:38:54.260Z,98994.20
2019-02-20T12:41:59.104Z,99000.34
2019-02-20T12:45:03.945Z,98983.00
2019-02-20T12:48:08.384Z,98985.80
2019-02-20T12:51:13.184Z,98980.16
2019-02-20T12:54:18.171Z,98980.88
2019-02-20T12:57:22.809Z,98978.92
2019-02-20T13:00:27.578Z,98984.94
2019-02-20T13:03:32.017Z,98970.11
2019-02-20T13:06:36.736Z,98977.14
2019-02-20T13:09:41.245Z,98971.09
2019-02-20T13:12:46.819Z,98971.60
2019-02-20T13:15:51.410Z,98974.31
2019-02-20T13:18:55.855Z,98970.34
2019-02-20T13:22:00.301Z,98980.01
2019-02-20T13:25:05.786Z,98972.39
2019-02-20T13:28:10.221Z,98971.31
2019-02-20T13:31:14.991Z,98966.83
2019-02-20T13:34:19.723Z,98971.86
2019-02-20T13:37:24.452Z,98973.42
2019-02-20T13:40:28.911Z,98968.84
2019-02-20T13:43:33.331Z,98963.70
2019-02-20T13:46:37.780Z,98967.23
2019-02-20T13:49:42.214Z,98965.77
2019-02-20T13:52:52.468Z,98963.70
2019-02-20T13:55:53.732Z,98970.14
2019-02-20T13:58:58.261Z,98962.78
2019-02-20T14:02:03.019Z,98967.84
2019-02-20T14:05:09.396Z,98963.03
2019-02-20T14:08:14.428Z,98965.47
2019-02-20T14:11:18.871Z,98962.48
2019-02-20T14:14:23.375Z,98965.83
2019-02-20T14:17:28.292Z,98965.02
2019-02-20T14:20:32.809Z,98961.55
2019-02-20T14:23:37.246Z,98966.06
2019-02-20T14:26:42.395Z,98963.23
2019-02-20T14:29:46.841Z,98965.63
2019-02-20T14:32:51.283Z,98969.48
2019-02-20T14:35:56.382Z,98964.06
2019-02-20T14:39:00.817Z,98963.54
2019-02-20T14:42:05.531Z,98960.28
2019-02-20T14:45:16.162Z,98961.35
2019-02-20T14:48:20.585Z,98967.85
2019-02-20T14:51:25.361Z,98966.13
2019-02-20T14:54:29.798Z,98971.72
2019-02-20T14:57:34.236Z,98972.77
2019-02-20T15:00:38.939Z,98965.55
2019-02-20T15:03:43.381Z,98969.75
2019-02-20T15:06:48.089Z,98970.55
2019-02-20T15:09:54.068Z,98962.56
2019-02-20T15:12:58.557Z,98961.06
2019-02-20T15:16:03.001Z,98966.27
2019-02-20T15:19:07.442Z,98959.14
2019-02-20T15:22:12.155Z,98967.07
2019-02-20T15:25:16.913Z,98963.34
2019-02-20T15:28:21.621Z,98970.17
2019-02-20T15:31:33.456Z,98964.81
2019-02-20T15:34:32.221Z,98970.48
2019-02-20T15:37:36.678Z,98968.34
2019-02-20T15:40:41.123Z,98961.84
2019-02-20T15:43:45.562Z,98968.02
2019-02-20T15:46:50.305Z,98971.53
2019-02-20T15:49:54.743Z,98965.88
2019-02-20T15:52:59.462Z,98961.55
2019-02-20T15:56:03.913Z,98959.95
2019-02-20T15:59:08.356Z,98962.34
2019-02-20T16:02:13.146Z,98964.52
2019-02-20T16:05:17.592Z,98960.98
2019-02-20T16:08:22.037Z,98963.92
2019-02-20T16:11:26.822Z,98963.06
2019-02-20T16:14:31.554Z,98967.84
2019-02-20T16:17:36.074Z,98971.83
2019-02-20T16:20:40.812Z,98971.14
2019-02-20T16:23:45.301Z,98973.96
2019-02-20T16:26:50.077Z,98975.19
2019-02-20T16:29:54.796Z,98974.30
2019-02-20T16:33:00.755Z,98974.21
2019-02-20T16:36:05.361Z,98976.45
2019-02-20T16:39:09.792Z,98978.02
2019-02-20T16:42:14.535Z,98980.23
2019-02-20T16:45:26.787Z,98992.60
2019-02-20T16:48:31.682Z,98992.44
2019-02-20T16:51:36.121Z,98996.56
2019-02-20T16:54:40.835Z,99006.02
2019-02-20T16:57:45.644Z,99005.83
2019-02-20T17:00:50.596Z,99002.91
2019-02-20T17:03:55.035Z,99004.96
2019-02-20T17:06:59.473Z,99013.88
2019-02-20T17:10:04.476Z,99019.83
2019-02-20T17:13:09.215Z,99027.33
2019-02-20T17:16:13.947Z,99020.64
2019-02-20T17:19:18.682Z,99022.75
2019-02-20T17:22:23.512Z,99029.89
2019-02-20T17:25:28.555Z,99029.46
2019-02-20T17:28:33.279Z,99029.08
2019-02-20T17:31:37.718Z,99038.52
2019-02-20T17:34:42.154Z,99036.56
2019-02-20T17:37:46.592Z,99044.19
2019-02-20T17:40:51.022Z,99038.29
2019-02-20T17:43:55.711Z,99048.07
2019-02-20T17:47:00.174Z,99043.81
2019-02-20T17:50:06.923Z,99045.02
2019-02-20T17:53:11.363Z,99049.94
2019-02-20T17:56:15.792Z,99052.91
2019-02-20T17:59:20.228Z,99056.42
2019-02-20T18:02:24.699Z,99052.94
2019-02-20T18:05:29.440Z,99058.63
2019-02-20T18:08:34.177Z,99056.61
2019-02-20T18:11:38.905Z,99060.31
2019-02-20T18:14:43.347Z,99065.78
2019-02-20T18:17:47.789Z,99065.54
2019-02-20T18:20:52.290Z,99072.27
2019-02-20T18:23:56.999Z,99069.73
2019-02-20T18:27:01.435Z,99075.72
2019-02-20T18:30:14.743Z,99073.91
2019-02-20T18:33:19.203Z,99071.04
2019-02-20T18:36:23.920Z,99072.38
2019-02-20T18:39:28.661Z,99081.23
2019-02-20T18:42:33.088Z,99082.98
2019-02-20T18:45:37.798Z,99087.11
2019-02-20T18:48:42.238Z,99082.98
2019-02-20T18:51:46.951Z,99087.72
2019-02-20T18:54:51.787Z,99087.91
2019-02-20T18:57:56.262Z,99091.53
2019-02-20T19:01:00.702Z,99085.25
2019-02-20T19:04:07.994Z,99087.09
2019-02-20T19:07:12.268Z,99089.05
2019-02-20T19:10:24.559Z,99089.88
2019-02-20T19:14:24.584Z,99094.51
2019-02-20T19:17:55.015Z,99094.77
2019-02-20T19:21:22.028Z,99099.53
2019-02-20T19:24:46.258Z,99109.73
2019-02-20T19:28:07.395Z,99109.81
2019-02-20T19:31:54.327Z,99121.19
2019-02-20T19:35:21.355Z,99122.16
2019-02-20T19:38:42.465Z,99126.60
2019-02-20T19:42:18.878Z,99133.30
2019-02-20T19:45:42.738Z,99137.27
2019-02-20T19:49:06.652Z,99143.26
2019-02-20T19:52:45.894Z,99145.33
2019-02-20T19:55:55.265Z,99145.33
2019-02-20T19:59:30.328Z,99145.92
2019-02-20T20:03:09.050Z,99143.55
2019-02-20T20:06:44.197Z,99151.36
2019-02-20T20:10:14.410Z,99159.34
2019-02-20T20:13:32.482Z,99156.48
2019-02-20T20:16:51.207Z,99156.72
2019-02-20T20:20:25.614Z,99153.92
2019-02-20T20:24:10.980Z,99158.73
2019-02-20T20:27:35.022Z,99163.01
2019-02-20T20:31:02.020Z,99164.33
2019-02-20T20:34:19.674Z,99158.58
2019-02-20T20:37:40.555Z,99168.27
2019-02-20T20:41:09.208Z,99168.89
2019-02-20T20:44:30.841Z,99174.70
2019-02-20T20:47:52.052Z,99164.96
2019-02-20T20:51:07.015Z,99166.45
2019-02-20T20:54:52.161Z,99166.80
2019-02-20T20:58:49.699Z,99159.77
2019-02-20T21:02:07.449Z,99163.09
2019-02-20T21:05:42.261Z,99172.79
2019-02-20T21:08:54.348Z,99163.47
2019-02-20T21:12:10.360Z,99164.64
2019-02-20T21:16:05.545Z,99162.44
2019-02-20T21:19:54.057Z,99166.68
2019-02-20T21:23:19.851Z,99166.72
2019-02-20T21:26:53.332Z,99168.22
2019-02-20T21:30:17.643Z,99170.06
2019-02-20T21:33:52.299Z,99170.62
2019-02-20T21:37:19.523Z,99163.72
2019-02-20T21:41:00.460Z,99170.08
2019-02-20T21:44:39.087Z,99165.72
2019-02-20T21:47:59.534Z,99168.34
2019-02-20T21:51:34.085Z,99164.42
2019-02-20T21:54:51.882Z,99163.55
2019-02-20T21:58:17.475Z,99165.77
2019-02-20T22:01:38.518Z,99169.99
2019-02-20T22:04:59.628Z,99170.57
2019-02-20T22:08:32.338Z,99178.30
2019-02-20T22:11:47.496Z,99170.03
2019-02-20T22:15:15.575Z,99184.98
2019-02-20T22:18:48.451Z,99182.83
2019-02-20T22:22:18.298Z,99183.40
2019-02-20T22:25:30.187Z,99189.75
2019-02-20T22:29:03.966Z,99186.14
2019-02-20T22:32:40.786Z,99183.99
2019-02-20T22:36:13.734Z,99186.62
2019-02-20T22:39:49.977Z,99178.31
2019-02-20T22:43:17.756Z,99183.34
2019-02-20T22:46:39.330Z,99183.83
2019-02-20T22:49:56.458Z,99185.43
2019-02-20T22:53:05.494Z,99182.89
2019-02-20T22:56:45.027Z,99193.93
2019-02-20T23:00:21.810Z,99192.52
2019-02-20T23:03:54.941Z,99196.23
2019-02-20T23:07:13.361Z,99196.19
2019-02-20T23:10:42.757Z,99200.41
2019-02-20T23:14:04.107Z,99203.15
2019-02-20T23:17:08.918Z,99206.86
2019-02-20T23:20:13.434Z,99208.02
2019-02-20T23:23:17.878Z,99207.56
2019-02-20T23:26:22.318Z,99211.83
2019-02-20T23:29:26.763Z,99212.05
2019-02-20T23:32:31.191Z,99207.56
2019-02-20T23:35:35.647Z,99213.65
2019-02-20T23:38:40.397Z,99210.28
2019-02-20T23:41:44.833Z,99219.30
2019-02-20T23:44:49.270Z,99216.67
2019-02-20T23:47:53.700Z,99212.19
2019-02-20T23:50:58.398Z,99213.81
2019-02-20T23:54:02.842Z,99222.41
2019-02-20T23:57:07.655Z,99224.95
